This is the latest recevied weather packets stored in our database for station/object JE7UPL-13. If no packets are shown the sender has not sent any weather packets the latest 10 day(s).
| Time | Temp. | Humidity | Pressure | Rain* | Wind** | Luminosity | Snow |
|---|---|---|---|---|---|---|---|
| 1788254106 | 23.33° C | 74% | 1010.7 hPa | 0 mm | - | - | - |
| 1788253207 | 23.33° C | 74% | 1010.8 hPa | 0 mm | - | - | - |
| 1788252307 | 22.78° C | 75% | 1011.2 hPa | 0 mm | - | - | - |
| 1788251407 | 22.78° C | 75% | 1011.1 hPa | 0 mm | - | - | - |
| 1788250507 | 22.78° C | 75% | 1011.3 hPa | 0 mm | - | - | - |
| 1788249607 | 23.33° C | 74% | 1011.6 hPa | 0 mm | - | - | - |
| 1788248706 | 23.89° C | 72% | 1011.6 hPa | 0 mm | - | - | - |
| 1788247807 | 24.44° C | 68% | 1011.2 hPa | 0 mm | - | - | - |
| 1788246906 | 25° C | 67% | 1011.1 hPa | 0 mm | - | - | - |
| 1788246007 | 24.44° C | 71% | 1011.1 hPa | 0 mm | - | - | - |
| 1788245107 | 23.89° C | 72% | 1011.3 hPa | 0 mm | - | - | - |
| 1788244209 | 24.44° C | 71% | 1011.6 hPa | 0 mm | - | - | - |
| 1788243307 | 24.44° C | 71% | 1011.5 hPa | 0 mm | - | - | - |
| 1788242407 | 24.44° C | 71% | 1011.7 hPa | 0 mm | - | - | - |
| 1788241506 | 24.44° C | 72% | 1011.7 hPa | 0 mm | - | - | - |
| 1788240607 | 24.44° C | 72% | 1011.8 hPa | 0 mm | - | - | - |
| 1788239706 | 23.89° C | 73% | 1012 hPa | 0 mm | - | - | - |
| 1788238807 | 24.44° C | 73% | 1012 hPa | 0 mm | - | - | - |
| 1788237906 | 24.44° C | 72% | 1011.9 hPa | 0 mm | - | - | - |
| 1788237008 | 24.44° C | 72% | 1012.2 hPa | 0 mm | - | - | - |
| 1788236107 | 24.44° C | 72% | 1011.9 hPa | 0 mm | - | - | - |
| 1788220808 | 23.33° C | 75% | 1013.1 hPa | 0 mm | - | - | - |
| 1788219907 | 23.33° C | 76% | 1013.1 hPa | 0 mm | - | - | - |
| 1788218107 | 23.33° C | 79% | 1013 hPa | 0 mm | - | - | - |
| 1788215407 | 21.67° C | 87% | 1012.9 hPa | 0 mm | - | - | - |
* Rain latest hour (hover to see other rain measurements)
** Current wind speed in m/s (hover to see current wind gust speed)